TMKTILLAMOOK
METARs for airports near TMK, sorted by distance:
N 0 nm 39' KTMK 161235Z 00000KT 10SM OVC046 11/09 A3009
SE 31 nm 162' KMMV 161237Z 00000KT 1/2SM FG VV002 07/07 A3012
E 37 nm 207' KHIO 161153Z 00000KT 1/4SM FG VV002 08/08 A3013
N 44 nm 14' KAST 161205Z 11004KT 10SM SCT030 OVC039 14/10 A3005
E 45 nm 199' KUAO 161233Z 00000KT 3/4SM BR VV002 07/06 A3013
NE 45 nm 58' KSPB 161230Z 00000KT 9SM OVC004 09/08 A3012
SE 45 nm 213' KSLE 161156Z 00000KT 3SM BR CLR 07/07 A3012
E 50 nm 28' KVUO 161246Z 00000KT 4SM BR BKN005 07/06 A3012
S 51 nm 160' KONP 161235Z 09005KT 10SM OVC044 09/08 A3012
E 52 nm 30' KPDX 161153Z 14005KT 10SM CLR 09/07 A3014
NE 56 nm 20' KKLS 161156Z 14010KT 10SM OVC070 10/09 A3012
SE 59 nm 249' KCVO 161207Z 00000KT 1/2SM FG OVC003 04/04 A3014
E 60 nm 38' KTTD 161153Z 00000KT 10SM OVC002 07/06 A3014
S 81 nm 373' KEUG 161204Z 20005KT 10SM FEW002 06/04 A3013
NE 83 nm 177' KCLS 161235Z 18008KT 10SM OVC039 12/10 A3007
N 93 nm 17' KHQM 161204Z 17012G21KT 10SM SCT019 OVC044 15/11 A3002
TAFs for airports near TMK, sorted by distance:
E 37 nm 207' KHIO KHIO 161130Z 1612/1712 VRB03KT 1/4SM FG OVC002
  FM161600 VRB03KT 3SM BR BKN003
  FM161800 VRB03KT P6SM SCT180
  FM170500 16005KT P6SM BKN150
N 44 nm 14' KAST KAST 161130Z 1612/1712 13006KT P6SM BKN030 OVC050
  FM162100 19011G19KT P6SM BKN050
  FM170000 19009KT P6SM OVC060
  FM170600 18008KT P6SM -RA SCT015 OVC030
E 45 nm 199' KUAO KUAO 161130Z 1612/1712 00000KT 1SM BCFG SCT003
  FM161700 VRB03KT P6SM SCT200
  FM170500 18005KT P6SM BKN150
SE 45 nm 213' KSLE KSLE 161130Z 1612/1712 VRB04KT P6SM SKC
  TEMPO 1613/1616 3SM BR
  FM170500 16005KT P6SM BKN150
S 51 nm 160' KONP KONP 161130Z 1612/1712 11003KT P6SM BKN040
  FM161400 11005KT P6SM BKN030
  FM161700 16004KT P6SM SCT035 BKN150
  FM162000 21010KT P6SM BKN250
  FM170400 18010KT 3SM BR SCT008 OVC015
  FM170800 18010G18KT P6SM SCT015 OVC040
E 52 nm 30' KPDX KPDX 161130Z 1612/1712 12004KT P6SM SCT200
  FM170500 14005KT P6SM BKN150
E 60 nm 38' KTTD KTTD 161130Z 1612/1712 11003KT P6SM SCT002
  TEMPO 1612/1616 BKN002
  FM161700 11003KT P6SM FEW250
S 81 nm 373' KEUG KEUG 161130Z 1612/1712 VRB03KT P6SM SKC
  TEMPO 1613/1616 3SM BR
  FM161700 VRB03KT P6SM SCT200
  FM170500 17005KT P6SM SCT200
N 93 nm 17' KHQM TAF KHQM 161120Z 1612/1712 17013KT P6SM OVC020
  FM161800 18015G25KT P6SM -RA BKN020 OVC040
  FM170200 18010KT P6SM OVC030
  FM170600 15007KT P6SM OVC015

Shortcut to this page: http://wxbay.com.

Data may contain errors.